createdAt,value
2023-01-18T00:00:52.414Z,1.00
2023-01-18T00:03:19.240Z,1.85
2023-01-18T00:05:45.971Z,1.52
2023-01-18T00:10:46.561Z,1.23
2023-01-18T00:13:13.259Z,0.82
2023-01-18T00:15:40.016Z,0.60
2023-01-18T00:20:33.819Z,1.85
2023-01-18T00:27:55.794Z,1.15
2023-01-18T00:30:25.121Z,2.38
2023-01-18T00:32:57.472Z,4.55
2023-01-18T00:35:25.456Z,1.52
2023-01-18T00:37:53.696Z,2.60
2023-01-18T00:40:21.914Z,1.52
2023-01-18T00:43:07.473Z,1.67
2023-01-18T00:45:34.327Z,1.40
2023-01-18T00:48:02.555Z,1.63
2023-01-18T00:50:29.497Z,5.40
2023-01-18T00:52:58.619Z,1.42
2023-01-18T00:55:26.233Z,1.45
2023-01-18T00:57:52.913Z,1.70
2023-01-18T01:02:47.090Z,1.42
2023-01-18T01:05:50.571Z,2.58
2023-01-18T01:08:17.517Z,2.17
2023-01-18T01:10:48.848Z,1.58
2023-01-18T01:13:36.997Z,1.95
2023-01-18T01:16:26.971Z,6.47
2023-01-18T01:19:12.650Z,5.05
2023-01-18T01:21:58.798Z,4.70
2023-01-18T01:24:44.333Z,2.85
2023-01-18T01:27:12.035Z,1.30
2023-01-18T01:29:39.359Z,3.20
2023-01-18T01:32:06.654Z,2.13
2023-01-18T01:34:33.410Z,1.95
2023-01-18T01:37:00.229Z,1.85
2023-01-18T01:39:26.987Z,1.48
2023-01-18T01:44:20.627Z,2.03
2023-01-18T01:46:51.115Z,1.63
2023-01-18T01:49:26.659Z,9.57
2023-01-18T01:51:58.515Z,4.78
2023-01-18T01:54:34.262Z,1.17
2023-01-18T01:57:10.484Z,1.98
2023-01-18T01:59:43.776Z,2.75
2023-01-18T02:02:11.438Z,0.80
2023-01-18T02:04:46.368Z,0.75
2023-01-18T02:07:13.451Z,1.40
2023-01-18T02:09:41.073Z,1.10
2023-01-18T02:12:07.899Z,2.55
2023-01-18T02:14:35.329Z,5.13
2023-01-18T02:17:35.498Z,2.58
2023-01-18T02:20:34.194Z,1.63
2023-01-18T02:23:39.551Z,2.60
2023-01-18T02:26:33.836Z,1.40
2023-01-18T02:29:14.664Z,2.42
2023-01-18T02:32:20.425Z,2.15
2023-01-18T02:34:58.015Z,6.63
2023-01-18T02:37:36.906Z,4.55
2023-01-18T02:40:16.248Z,4.53
2023-01-18T02:43:03.336Z,4.95
2023-01-18T02:45:57.532Z,7.50
2023-01-18T02:48:31.111Z,3.40
2023-01-18T02:50:57.800Z,3.42
2023-01-18T02:55:56.349Z,3.95
2023-01-18T02:58:37.716Z,3.15
2023-01-18T03:01:36.836Z,2.60
2023-01-18T03:04:15.139Z,3.47
2023-01-18T03:06:46.937Z,5.88
2023-01-18T03:09:21.175Z,2.83
2023-01-18T03:11:47.767Z,3.40
2023-01-18T03:16:58.887Z,3.05
2023-01-18T03:20:08.622Z,1.45
2023-01-18T03:23:06.832Z,4.18
2023-01-18T03:25:43.724Z,2.25
2023-01-18T03:28:53.112Z,1.88
2023-01-18T03:31:49.255Z,1.75
2023-01-18T03:34:25.209Z,1.45
2023-01-18T03:36:53.766Z,1.52
2023-01-18T03:39:30.905Z,2.25
2023-01-18T03:42:08.900Z,2.03
2023-01-18T03:44:39.458Z,2.60
2023-01-18T03:47:07.189Z,6.95
2023-01-18T03:49:34.879Z,2.72
2023-01-18T03:52:10.047Z,5.75
2023-01-18T03:54:41.472Z,0.85
2023-01-18T03:57:21.188Z,1.00
2023-01-18T03:59:48.555Z,1.80
2023-01-18T04:02:17.847Z,1.73
2023-01-18T04:04:44.828Z,2.95
2023-01-18T04:07:11.490Z,1.05
2023-01-18T04:09:38.207Z,2.22
2023-01-18T04:14:31.808Z,1.25
2023-01-18T04:19:25.294Z,2.00
2023-01-18T04:21:51.943Z,4.70
2023-01-18T04:26:45.317Z,3.92
2023-01-18T04:31:39.231Z,2.90
2023-01-18T04:34:05.910Z,2.22
2023-01-18T04:36:32.696Z,3.03
2023-01-18T04:41:26.269Z,2.55
2023-01-18T04:43:53.301Z,1.23
2023-01-18T04:46:20.101Z,2.58
2023-01-18T04:48:51.575Z,2.67
2023-01-18T04:51:18.829Z,1.58
2023-01-18T04:53:46.450Z,4.50
2023-01-18T04:56:13.154Z,3.78
2023-01-18T05:01:08.932Z,1.95
2023-01-18T05:03:38.304Z,1.02
2023-01-18T05:06:10.091Z,5.13
2023-01-18T05:08:40.843Z,2.58
2023-01-18T05:11:12.767Z,2.25
2023-01-18T05:13:40.615Z,1.98
2023-01-18T05:16:12.738Z,1.13
2023-01-18T05:18:39.534Z,1.33
2023-01-18T05:23:33.024Z,1.30
2023-01-18T05:25:59.741Z,1.27
2023-01-18T05:30:55.124Z,2.63
2023-01-18T05:33:22.698Z,3.85
2023-01-18T05:35:55.669Z,1.10
2023-01-18T05:38:23.706Z,1.40
2023-01-18T05:40:52.527Z,1.20
2023-01-18T05:43:20.583Z,0.98
2023-01-18T05:45:47.318Z,1.48
2023-01-18T05:48:15.002Z,3.30
2023-01-18T05:50:43.645Z,1.10
2023-01-18T05:53:15.645Z,2.33
2023-01-18T05:55:42.407Z,3.38
2023-01-18T05:58:09.575Z,1.30
2023-01-18T06:00:36.482Z,1.80
2023-01-18T06:03:03.233Z,3.28
2023-01-18T06:05:29.968Z,1.55
2023-01-18T06:10:23.518Z,1.58
2023-01-18T06:12:50.398Z,2.60
2023-01-18T06:15:17.397Z,1.15
2023-01-18T06:20:13.246Z,2.30
2023-01-18T06:22:40.685Z,2.65
2023-01-18T06:25:09.520Z,3.00
2023-01-18T06:27:37.630Z,3.03
2023-01-18T06:30:06.165Z,0.50
2023-01-18T06:32:33.439Z,4.90
2023-01-18T06:35:00.164Z,4.18
2023-01-18T06:39:53.490Z,2.75
2023-01-18T06:44:46.880Z,1.58
2023-01-18T06:49:48.682Z,3.10
2023-01-18T06:52:16.284Z,2.88
2023-01-18T06:54:44.796Z,2.75
2023-01-18T06:57:12.217Z,3.60
2023-01-18T06:59:39.697Z,4.82
2023-01-18T07:02:06.986Z,3.38
2023-01-18T07:04:37.755Z,3.80
2023-01-18T07:07:04.589Z,3.30
2023-01-18T07:11:57.829Z,2.47
2023-01-18T07:14:24.513Z,3.00
2023-01-18T07:16:51.191Z,4.32
2023-01-18T07:19:17.879Z,2.28
2023-01-18T07:21:44.608Z,7.15
2023-01-18T07:24:11.356Z,1.80
2023-01-18T07:29:04.810Z,4.03
2023-01-18T07:33:58.471Z,4.67
2023-01-18T07:38:52.219Z,3.63
2023-01-18T07:41:19.133Z,2.42
2023-01-18T07:43:46.161Z,2.90
2023-01-18T07:46:16.438Z,1.83
2023-01-18T07:48:44.716Z,2.30
2023-01-18T07:51:11.965Z,2.45
2023-01-18T07:53:39.271Z,1.95
2023-01-18T07:56:25.883Z,3.88
2023-01-18T07:58:53.192Z,4.28
2023-01-18T08:01:22.553Z,2.33
2023-01-18T08:03:50.497Z,1.92
2023-01-18T08:06:22.253Z,1.70
2023-01-18T08:08:48.948Z,2.55
2023-01-18T08:13:42.666Z,2.38
2023-01-18T08:16:11.668Z,5.85
2023-01-18T08:18:38.795Z,4.78
2023-01-18T08:21:08.219Z,2.63
2023-01-18T08:23:34.981Z,2.30
2023-01-18T08:28:29.108Z,2.35
2023-01-18T08:33:31.598Z,3.53
2023-01-18T08:38:25.054Z,3.38
2023-01-18T08:40:51.730Z,4.72
2023-01-18T08:45:50.255Z,4.25
2023-01-18T08:48:16.898Z,3.55
2023-01-18T08:50:45.917Z,3.17
2023-01-18T08:53:13.256Z,2.50
2023-01-18T08:55:40.453Z,2.03
2023-01-18T08:58:07.345Z,2.80
2023-01-18T09:00:34.093Z,2.45
2023-01-18T09:05:30.001Z,2.72
2023-01-18T09:07:57.756Z,2.45
2023-01-18T09:10:24.452Z,2.10
2023-01-18T09:15:20.461Z,2.95
2023-01-18T09:20:13.729Z,3.72
2023-01-18T09:22:42.654Z,3.47
2023-01-18T09:25:10.448Z,4.10
2023-01-18T09:27:37.183Z,3.42
2023-01-18T09:32:31.199Z,1.73
2023-01-18T09:37:24.542Z,2.58
2023-01-18T09:39:52.502Z,3.08
2023-01-18T09:42:27.232Z,3.80
2023-01-18T09:45:01.111Z,3.60
2023-01-18T09:47:36.692Z,1.90
2023-01-18T09:50:14.732Z,2.35
2023-01-18T09:52:56.228Z,2.75
2023-01-18T09:55:33.161Z,1.88
2023-01-18T09:58:37.691Z,2.10
2023-01-18T10:01:24.993Z,4.40
2023-01-18T10:03:59.899Z,2.50
2023-01-18T10:06:37.205Z,2.10
2023-01-18T10:12:01.184Z,1.73
2023-01-18T10:14:47.174Z,1.50
2023-01-18T10:17:21.296Z,1.63
2023-01-18T10:19:48.199Z,1.52
2023-01-18T10:22:33.136Z,1.60
2023-01-18T10:25:02.712Z,1.60
2023-01-18T10:27:58.661Z,1.23
2023-01-18T10:30:43.348Z,1.23
2023-01-18T10:33:20.341Z,1.30
2023-01-18T10:35:58.149Z,1.15
2023-01-18T10:38:29.198Z,1.10
2023-01-18T10:41:03.556Z,2.28
2023-01-18T10:43:31.715Z,1.20
2023-01-18T10:45:58.750Z,1.83
2023-01-18T10:48:31.730Z,1.95
2023-01-18T10:51:05.717Z,2.20
2023-01-18T10:53:36.960Z,2.15
2023-01-18T10:56:09.740Z,2.20
2023-01-18T10:58:46.340Z,1.67
2023-01-18T11:01:17.389Z,1.50
2023-01-18T11:03:50.432Z,2.63
2023-01-18T11:06:20.325Z,2.13
2023-01-18T11:08:48.968Z,1.88
2023-01-18T11:11:18.326Z,3.08
2023-01-18T11:13:47.591Z,2.92
2023-01-18T11:16:22.661Z,2.53
2023-01-18T11:19:01.260Z,5.30
2023-01-18T11:21:41.077Z,2.67
2023-01-18T11:24:12.993Z,2.40
2023-01-18T11:27:01.703Z,2.75
2023-01-18T11:29:35.654Z,1.35
2023-01-18T11:32:06.590Z,1.48
2023-01-18T11:34:41.080Z,2.42
2023-01-18T11:37:43.623Z,2.13
2023-01-18T11:40:36.674Z,2.42
2023-01-18T11:43:13.761Z,2.53
2023-01-18T11:45:54.282Z,2.47
2023-01-18T11:48:50.035Z,2.22
2023-01-18T11:51:31.634Z,2.58
2023-01-18T11:54:06.835Z,2.90
2023-01-18T11:56:44.043Z,3.13
2023-01-18T11:59:30.951Z,7.20
2023-01-18T12:02:35.180Z,5.78
2023-01-18T12:05:33.455Z,6.72
2023-01-18T12:08:42.647Z,5.40
2023-01-18T12:11:34.003Z,11.38
2023-01-18T12:14:05.097Z,9.45
2023-01-18T12:17:02.619Z,7.57
2023-01-18T12:20:11.796Z,7.40
2023-01-18T12:22:55.439Z,7.28
2023-01-18T12:26:11.865Z,5.88
2023-01-18T12:29:04.238Z,4.93
2023-01-18T12:31:46.187Z,5.50
2023-01-18T12:34:21.981Z,5.18
2023-01-18T12:37:01.707Z,7.15
2023-01-18T12:39:53.482Z,6.20
2023-01-18T12:42:35.009Z,7.07
2023-01-18T12:45:19.637Z,7.82
2023-01-18T12:48:14.528Z,6.05
2023-01-18T12:50:43.566Z,4.88
2023-01-18T12:53:16.304Z,7.82
2023-01-18T12:55:47.195Z,7.82
2023-01-18T12:58:25.876Z,7.00
2023-01-18T13:00:59.269Z,7.60
2023-01-18T13:03:31.323Z,12.65
2023-01-18T13:06:00.910Z,8.38
2023-01-18T13:08:38.949Z,8.88
2023-01-18T13:11:17.149Z,6.30
2023-01-18T13:13:45.064Z,6.22
2023-01-18T13:16:45.144Z,13.15
2023-01-18T13:19:18.018Z,5.68
2023-01-18T13:22:08.653Z,7.72
2023-01-18T13:25:09.452Z,8.98
2023-01-18T13:27:37.599Z,8.90
2023-01-18T13:30:15.823Z,9.82
2023-01-18T13:32:45.288Z,6.22
2023-01-18T13:35:21.720Z,8.00
2023-01-18T13:37:56.353Z,5.68
2023-01-18T13:40:35.072Z,6.80
2023-01-18T13:43:01.911Z,7.43
2023-01-18T13:45:30.162Z,8.13
2023-01-18T13:48:06.898Z,6.70
2023-01-18T13:50:39.817Z,6.50
2023-01-18T13:53:15.594Z,8.20
2023-01-18T13:55:54.665Z,9.75
2023-01-18T13:58:37.864Z,11.88
2023-01-18T14:01:07.871Z,8.27
2023-01-18T14:03:38.929Z,7.20
2023-01-18T14:06:10.285Z,8.60
2023-01-18T14:08:41.010Z,7.70
2023-01-18T14:11:10.360Z,9.63
2023-01-18T14:13:46.241Z,6.90
2023-01-18T14:16:17.728Z,9.32
2023-01-18T14:19:12.354Z,8.10
2023-01-18T14:22:12.035Z,7.70
2023-01-18T14:25:00.862Z,7.75
2023-01-18T14:27:33.919Z,6.78
2023-01-18T14:30:27.180Z,6.03
2023-01-18T14:33:23.300Z,8.85
2023-01-18T14:35:56.139Z,9.00
2023-01-18T14:38:22.919Z,14.55
2023-01-18T14:40:52.676Z,7.60
2023-01-18T14:43:29.706Z,6.07
2023-01-18T14:46:00.221Z,5.63
2023-01-18T14:48:31.039Z,7.05
2023-01-18T14:50:59.600Z,10.77
2023-01-18T14:53:30.255Z,7.75
2023-01-18T14:56:18.272Z,8.90
2023-01-18T14:58:50.779Z,8.07
2023-01-18T15:01:29.113Z,8.07
2023-01-18T15:04:18.282Z,6.45
2023-01-18T15:06:49.648Z,9.45
2023-01-18T15:09:19.323Z,8.57
2023-01-18T15:11:46.716Z,9.35
2023-01-18T15:14:18.946Z,8.02
2023-01-18T15:16:48.417Z,8.73
2023-01-18T15:19:18.944Z,10.73
2023-01-18T15:21:45.964Z,9.82
2023-01-18T15:24:24.773Z,10.00
2023-01-18T15:27:02.556Z,8.38
2023-01-18T15:29:36.023Z,7.95
2023-01-18T15:32:14.343Z,8.15
2023-01-18T15:34:47.130Z,7.10
2023-01-18T15:37:26.026Z,8.50
2023-01-18T15:40:06.915Z,11.73
2023-01-18T15:42:45.580Z,7.97
2023-01-18T15:45:29.611Z,12.27
2023-01-18T15:48:02.221Z,9.75
2023-01-18T15:50:36.138Z,13.68
2023-01-18T15:53:11.860Z,19.50
2023-01-18T15:55:49.472Z,11.32
2023-01-18T15:58:38.979Z,11.10
2023-01-18T16:01:08.301Z,9.80
2023-01-18T16:03:40.934Z,9.98
2023-01-18T16:06:22.295Z,10.75
2023-01-18T16:09:11.828Z,11.18
2023-01-18T16:11:41.532Z,8.23
2023-01-18T16:14:25.558Z,9.45
2023-01-18T16:16:53.834Z,7.55
2023-01-18T16:19:28.993Z,15.85
2023-01-18T16:22:02.201Z,9.60
2023-01-18T16:24:50.991Z,8.85
2023-01-18T16:27:20.667Z,12.55
2023-01-18T16:29:53.955Z,14.98
2023-01-18T16:32:29.451Z,11.32
2023-01-18T16:35:12.174Z,11.80
2023-01-18T16:37:41.419Z,9.75
2023-01-18T16:40:09.344Z,12.43
2023-01-18T16:43:02.448Z,11.80
2023-01-18T16:45:32.393Z,19.40
2023-01-18T16:47:59.336Z,11.63
2023-01-18T16:50:26.716Z,10.18
2023-01-18T16:52:53.369Z,12.80
2023-01-18T16:57:46.623Z,18.00
2023-01-18T17:02:44.213Z,13.15
2023-01-18T17:05:11.452Z,11.50
2023-01-18T17:07:38.268Z,13.13
2023-01-18T17:10:26.347Z,13.30
2023-01-18T17:12:53.005Z,18.13
2023-01-18T17:17:47.659Z,18.33
2023-01-18T17:20:23.259Z,14.20
2023-01-18T17:22:54.435Z,13.05
2023-01-18T17:25:22.404Z,18.92
2023-01-18T17:27:49.954Z,17.60
2023-01-18T17:30:20.322Z,11.68
2023-01-18T17:32:47.767Z,17.80
2023-01-18T17:35:16.498Z,18.42
2023-01-18T17:37:43.334Z,20.10
2023-01-18T17:40:17.060Z,17.65
2023-01-18T17:42:46.962Z,33.95
2023-01-18T17:45:16.735Z,16.05
2023-01-18T17:47:43.815Z,18.73
2023-01-18T17:50:17.361Z,16.70
2023-01-18T17:52:44.421Z,13.07
2023-01-18T17:55:12.893Z,15.07
2023-01-18T17:57:40.271Z,14.38
2023-01-18T18:00:09.349Z,12.05
2023-01-18T18:02:36.028Z,15.50
2023-01-18T18:10:00.906Z,21.10
2023-01-18T18:12:29.352Z,19.35
2023-01-18T18:14:56.173Z,17.83
2023-01-18T18:17:24.522Z,17.98
2023-01-18T18:19:51.479Z,18.00
2023-01-18T18:22:21.489Z,19.15
2023-01-18T18:24:48.934Z,16.05
2023-01-18T18:27:16.917Z,16.92
2023-01-18T18:29:44.003Z,13.95
2023-01-18T18:32:11.592Z,14.50
2023-01-18T18:34:38.394Z,13.50
2023-01-18T18:37:05.320Z,20.60
2023-01-18T18:39:32.872Z,21.50
2023-01-18T18:41:59.603Z,20.17
2023-01-18T18:44:26.315Z,14.95
2023-01-18T18:49:19.561Z,17.85
2023-01-18T18:54:13.374Z,18.83
2023-01-18T18:56:40.249Z,22.85
2023-01-18T18:59:06.983Z,19.48
2023-01-18T19:01:33.821Z,18.95
2023-01-18T19:04:00.714Z,17.63
2023-01-18T19:06:27.764Z,15.63
2023-01-18T19:08:54.974Z,15.93
2023-01-18T19:11:22.021Z,18.98
2023-01-18T19:13:49.689Z,18.25
2023-01-18T19:16:17.195Z,16.45
2023-01-18T19:18:43.929Z,16.27
2023-01-18T19:21:11.027Z,14.57
2023-01-18T19:23:37.748Z,14.48
2023-01-18T19:28:31.125Z,11.40
2023-01-18T19:33:29.273Z,10.95
2023-01-18T19:35:56.049Z,11.82
2023-01-18T19:38:23.023Z,11.25
2023-01-18T19:40:50.671Z,10.00
2023-01-18T19:43:17.414Z,10.02
2023-01-18T19:48:10.904Z,12.40
2023-01-18T19:50:37.772Z,8.93
2023-01-18T19:53:04.589Z,8.57
2023-01-18T19:55:31.324Z,10.05
2023-01-18T19:57:59.855Z,12.20
2023-01-18T20:00:28.826Z,9.27
2023-01-18T20:02:55.604Z,10.30
2023-01-18T20:05:22.334Z,11.18
2023-01-18T20:07:49.252Z,11.07
2023-01-18T20:10:19.969Z,12.43
2023-01-18T20:12:48.849Z,10.77
2023-01-18T20:15:17.189Z,14.43
2023-01-18T20:17:44.443Z,12.75
2023-01-18T20:20:12.746Z,16.00
2023-01-18T20:22:46.687Z,10.20
2023-01-18T20:25:13.530Z,6.10
2023-01-18T20:27:40.234Z,8.80
2023-01-18T20:30:07.633Z,10.40
2023-01-18T20:32:34.523Z,10.05
2023-01-18T20:35:01.219Z,11.07
2023-01-18T20:39:55.875Z,9.55
2023-01-18T20:42:22.681Z,10.75
2023-01-18T20:44:53.452Z,13.63
2023-01-18T20:47:20.338Z,8.80
2023-01-18T20:49:47.067Z,11.50
2023-01-18T20:52:14.015Z,30.33
2023-01-18T20:54:40.771Z,8.50
2023-01-18T20:57:07.488Z,10.00
2023-01-18T21:02:01.844Z,11.57
2023-01-18T21:04:29.150Z,11.65
2023-01-18T21:06:57.792Z,14.55
2023-01-18T21:09:25.257Z,9.10
2023-01-18T21:11:51.936Z,9.40
2023-01-18T21:16:46.024Z,6.43
2023-01-18T21:19:13.506Z,9.48
2023-01-18T21:21:40.187Z,10.60
2023-01-18T21:26:34.112Z,11.23
2023-01-18T21:29:00.931Z,8.57
2023-01-18T21:31:27.809Z,12.75
2023-01-18T21:33:54.992Z,10.20
2023-01-18T21:36:22.939Z,9.70
2023-01-18T21:38:50.212Z,10.80
2023-01-18T21:41:35.712Z,9.15
2023-01-18T21:44:21.261Z,10.88
2023-01-18T21:46:50.866Z,12.25
2023-01-18T21:50:16.022Z,12.95
2023-01-18T21:52:42.825Z,9.93
2023-01-18T21:55:09.957Z,12.77
2023-01-18T21:57:37.394Z,15.95
2023-01-18T22:00:04.930Z,11.63
2023-01-18T22:02:34.912Z,11.27
2023-01-18T22:05:03.697Z,10.45
2023-01-18T22:07:32.510Z,11.32
2023-01-18T22:10:05.193Z,26.67
2023-01-18T22:12:34.800Z,13.00
2023-01-18T22:15:02.837Z,13.02
2023-01-18T22:17:29.711Z,13.13
2023-01-18T22:19:56.501Z,13.48
2023-01-18T22:22:23.265Z,14.55
2023-01-18T22:24:50.007Z,11.00
2023-01-18T22:27:16.664Z,11.80
2023-01-18T22:32:09.996Z,13.85
2023-01-18T22:34:36.731Z,13.27
2023-01-18T22:37:03.464Z,9.75
2023-01-18T22:39:30.184Z,10.20
2023-01-18T22:41:56.987Z,10.88
2023-01-18T22:44:23.949Z,8.70
2023-01-18T22:46:50.646Z,13.55
2023-01-18T22:51:44.264Z,8.52
2023-01-18T22:54:10.908Z,11.32
2023-01-18T22:56:37.677Z,12.13
2023-01-18T23:01:32.285Z,12.40
2023-01-18T23:04:01.461Z,12.35
2023-01-18T23:06:29.419Z,13.88
2023-01-18T23:08:56.697Z,12.27
2023-01-18T23:11:26.948Z,11.25
2023-01-18T23:14:15.202Z,9.52
2023-01-18T23:17:01.950Z,9.02
2023-01-18T23:19:30.592Z,11.07
2023-01-18T23:21:57.886Z,11.27
2023-01-18T23:24:25.243Z,10.18
2023-01-18T23:26:52.442Z,12.93
2023-01-18T23:29:20.080Z,12.55
2023-01-18T23:31:46.933Z,9.82
2023-01-18T23:34:13.671Z,13.90
2023-01-18T23:36:40.320Z,9.55
2023-01-18T23:42:10.966Z,10.23
2023-01-18T23:44:56.331Z,10.02
2023-01-18T23:47:42.071Z,8.07
2023-01-18T23:50:28.235Z,10.15
2023-01-18T23:53:13.453Z,13.82
2023-01-18T23:55:41.393Z,12.25
2023-01-18T23:58:08.170Z,14.20
